sensor_id;sensor_type;location;lat;lon;timestamp;P1;durP1;ratioP1;P2;durP2;ratioP2
78365;SDS011;67641;59.864;30.464;2024-03-06T00:02:20;16.48;;;2.65;;
78365;SDS011;67641;59.864;30.464;2024-03-06T00:04:46;15.90;;;2.55;;
78365;SDS011;67641;59.864;30.464;2024-03-06T00:07:13;21.85;;;2.63;;
78365;SDS011;67641;59.864;30.464;2024-03-06T00:09:39;16.02;;;2.42;;
78365;SDS011;67641;59.864;30.464;2024-03-06T00:12:06;21.30;;;2.88;;
78365;SDS011;67641;59.864;30.464;2024-03-06T00:14:32;26.02;;;2.90;;
78365;SDS011;67641;59.864;30.464;2024-03-06T00:16:59;21.90;;;2.53;;
78365;SDS011;67641;59.864;30.464;2024-03-06T00:19:25;28.90;;;3.15;;
78365;SDS011;67641;59.864;30.464;2024-03-06T00:21:52;31.50;;;3.75;;
78365;SDS011;67641;59.864;30.464;2024-03-06T00:24:18;19.80;;;2.42;;
78365;SDS011;67641;59.864;30.464;2024-03-06T00:26:45;23.98;;;3.25;;
78365;SDS011;67641;59.864;30.464;2024-03-06T00:29:13;26.13;;;2.80;;
78365;SDS011;67641;59.864;30.464;2024-03-06T00:31:44;21.67;;;2.55;;
78365;SDS011;67641;59.864;30.464;2024-03-06T00:34:12;30.23;;;2.97;;
78365;SDS011;67641;59.864;30.464;2024-03-06T00:36:39;22.27;;;2.45;;
78365;SDS011;67641;59.864;30.464;2024-03-06T00:39:06;24.08;;;2.50;;
78365;SDS011;67641;59.864;30.464;2024-03-06T00:41:34;25.23;;;2.92;;
78365;SDS011;67641;59.864;30.464;2024-03-06T00:44:01;21.90;;;2.88;;
78365;SDS011;67641;59.864;30.464;2024-03-06T00:46:29;20.20;;;2.55;;
78365;SDS011;67641;59.864;30.464;2024-03-06T00:48:55;29.25;;;3.17;;
78365;SDS011;67641;59.864;30.464;2024-03-06T00:51:22;31.65;;;2.63;;
78365;SDS011;67641;59.864;30.464;2024-03-06T00:53:49;22.63;;;2.78;;
78365;SDS011;67641;59.864;30.464;2024-03-06T00:56:16;25.20;;;2.15;;
78365;SDS011;67641;59.864;30.464;2024-03-06T00:58:42;22.35;;;2.50;;
78365;SDS011;67641;59.864;30.464;2024-03-06T01:01:09;18.52;;;2.45;;
78365;SDS011;67641;59.864;30.464;2024-03-06T01:03:37;21.33;;;2.28;;
78365;SDS011;67641;59.864;30.464;2024-03-06T01:06:04;21.65;;;2.50;;
78365;SDS011;67641;59.864;30.464;2024-03-06T01:08:31;21.80;;;3.45;;
78365;SDS011;67641;59.864;30.464;2024-03-06T01:10:57;16.90;;;1.95;;
78365;SDS011;67641;59.864;30.464;2024-03-06T01:13:24;18.98;;;1.80;;
78365;SDS011;67641;59.864;30.464;2024-03-06T01:15:51;22.90;;;2.30;;
78365;SDS011;67641;59.864;30.464;2024-03-06T01:18:18;15.40;;;2.00;;
78365;SDS011;67641;59.864;30.464;2024-03-06T01:20:44;21.77;;;1.70;;
78365;SDS011;67641;59.864;30.464;2024-03-06T01:23:11;16.23;;;1.85;;
78365;SDS011;67641;59.864;30.464;2024-03-06T01:25:37;21.02;;;1.88;;
78365;SDS011;67641;59.864;30.464;2024-03-06T01:28:04;19.92;;;1.77;;
78365;SDS011;67641;59.864;30.464;2024-03-06T01:30:31;22.13;;;2.53;;
78365;SDS011;67641;59.864;30.464;2024-03-06T01:32:57;17.08;;;1.67;;
78365;SDS011;67641;59.864;30.464;2024-03-06T01:35:24;14.90;;;1.92;;
78365;SDS011;67641;59.864;30.464;2024-03-06T01:37:51;16.27;;;1.92;;
78365;SDS011;67641;59.864;30.464;2024-03-06T01:40:17;12.55;;;1.38;;
78365;SDS011;67641;59.864;30.464;2024-03-06T01:42:45;17.10;;;1.38;;
78365;SDS011;67641;59.864;30.464;2024-03-06T01:45:14;11.18;;;1.27;;
78365;SDS011;67641;59.864;30.464;2024-03-06T01:47:40;16.08;;;1.83;;
78365;SDS011;67641;59.864;30.464;2024-03-06T01:50:07;14.70;;;1.20;;
78365;SDS011;67641;59.864;30.464;2024-03-06T01:52:35;15.23;;;1.70;;
78365;SDS011;67641;59.864;30.464;2024-03-06T01:55:03;8.45;;;1.10;;
78365;SDS011;67641;59.864;30.464;2024-03-06T01:57:31;10.77;;;1.00;;
78365;SDS011;67641;59.864;30.464;2024-03-06T01:59:59;12.40;;;1.20;;
78365;SDS011;67641;59.864;30.464;2024-03-06T02:02:26;16.58;;;1.48;;
78365;SDS011;67641;59.864;30.464;2024-03-06T02:04:53;9.20;;;0.80;;
78365;SDS011;67641;59.864;30.464;2024-03-06T02:07:20;11.43;;;1.00;;
78365;SDS011;67641;59.864;30.464;2024-03-06T02:09:47;11.20;;;0.90;;
78365;SDS011;67641;59.864;30.464;2024-03-06T02:12:14;16.50;;;1.30;;
78365;SDS011;67641;59.864;30.464;2024-03-06T02:14:42;10.65;;;1.05;;
78365;SDS011;67641;59.864;30.464;2024-03-06T02:17:12;9.70;;;1.02;;
78365;SDS011;67641;59.864;30.464;2024-03-06T02:19:39;9.50;;;1.08;;
78365;SDS011;67641;59.864;30.464;2024-03-06T02:22:07;13.55;;;1.60;;
78365;SDS011;67641;59.864;30.464;2024-03-06T02:24:34;10.50;;;1.20;;
78365;SDS011;67641;59.864;30.464;2024-03-06T02:27:01;13.38;;;1.42;;
78365;SDS011;67641;59.864;30.464;2024-03-06T02:29:28;12.73;;;1.60;;
78365;SDS011;67641;59.864;30.464;2024-03-06T02:31:54;15.68;;;1.85;;
78365;SDS011;67641;59.864;30.464;2024-03-06T02:34:21;10.40;;;1.20;;
78365;SDS011;67641;59.864;30.464;2024-03-06T02:36:47;13.68;;;1.52;;
78365;SDS011;67641;59.864;30.464;2024-03-06T02:39:14;7.75;;;0.95;;
78365;SDS011;67641;59.864;30.464;2024-03-06T02:41:40;9.70;;;1.33;;
78365;SDS011;67641;59.864;30.464;2024-03-06T02:44:07;11.40;;;1.52;;
78365;SDS011;67641;59.864;30.464;2024-03-06T02:46:34;8.48;;;0.88;;
78365;SDS011;67641;59.864;30.464;2024-03-06T02:49:01;11.80;;;0.90;;
78365;SDS011;67641;59.864;30.464;2024-03-06T02:51:27;8.80;;;0.85;;
78365;SDS011;67641;59.864;30.464;2024-03-06T02:53:54;10.88;;;1.30;;
78365;SDS011;67641;59.864;30.464;2024-03-06T02:56:20;14.40;;;1.35;;
78365;SDS011;67641;59.864;30.464;2024-03-06T02:58:47;10.98;;;1.27;;
78365;SDS011;67641;59.864;30.464;2024-03-06T03:01:14;9.98;;;1.17;;
78365;SDS011;67641;59.864;30.464;2024-03-06T03:03:41;12.85;;;1.20;;
78365;SDS011;67641;59.864;30.464;2024-03-06T03:06:08;17.73;;;1.55;;
78365;SDS011;67641;59.864;30.464;2024-03-06T03:08:36;10.77;;;1.23;;
78365;SDS011;67641;59.864;30.464;2024-03-06T03:11:04;10.07;;;0.93;;
78365;SDS011;67641;59.864;30.464;2024-03-06T03:13:31;9.38;;;1.13;;
78365;SDS011;67641;59.864;30.464;2024-03-06T03:15:57;13.68;;;1.08;;
78365;SDS011;67641;59.864;30.464;2024-03-06T03:18:24;11.32;;;1.05;;
78365;SDS011;67641;59.864;30.464;2024-03-06T03:20:51;8.88;;;1.30;;
78365;SDS011;67641;59.864;30.464;2024-03-06T03:23:17;8.68;;;0.98;;
78365;SDS011;67641;59.864;30.464;2024-03-06T03:25:48;14.68;;;1.95;;
78365;SDS011;67641;59.864;30.464;2024-03-06T03:28:17;6.53;;;0.80;;
78365;SDS011;67641;59.864;30.464;2024-03-06T03:30:44;9.68;;;1.10;;
78365;SDS011;67641;59.864;30.464;2024-03-06T03:33:10;12.52;;;1.20;;
78365;SDS011;67641;59.864;30.464;2024-03-06T03:35:38;9.40;;;1.25;;
78365;SDS011;67641;59.864;30.464;2024-03-06T03:38:04;8.35;;;0.90;;
78365;SDS011;67641;59.864;30.464;2024-03-06T03:40:32;6.57;;;1.15;;
78365;SDS011;67641;59.864;30.464;2024-03-06T03:42:58;17.25;;;1.73;;
78365;SDS011;67641;59.864;30.464;2024-03-06T03:45:32;12.57;;;1.73;;
78365;SDS011;67641;59.864;30.464;2024-03-06T03:48:02;10.60;;;1.00;;
78365;SDS011;67641;59.864;30.464;2024-03-06T03:50:30;11.70;;;1.38;;
78365;SDS011;67641;59.864;30.464;2024-03-06T03:52:57;10.93;;;1.25;;
78365;SDS011;67641;59.864;30.464;2024-03-06T03:55:27;12.82;;;1.38;;
78365;SDS011;67641;59.864;30.464;2024-03-06T03:57:53;14.68;;;1.52;;
78365;SDS011;67641;59.864;30.464;2024-03-06T04:00:20;13.35;;;1.52;;
78365;SDS011;67641;59.864;30.464;2024-03-06T04:02:48;15.80;;;1.50;;
78365;SDS011;67641;59.864;30.464;2024-03-06T04:05:15;11.93;;;1.40;;
78365;SDS011;67641;59.864;30.464;2024-03-06T04:07:42;8.15;;;1.00;;
78365;SDS011;67641;59.864;30.464;2024-03-06T04:10:09;8.60;;;1.00;;
78365;SDS011;67641;59.864;30.464;2024-03-06T04:12:37;9.90;;;0.88;;
78365;SDS011;67641;59.864;30.464;2024-03-06T04:15:04;13.30;;;1.70;;
78365;SDS011;67641;59.864;30.464;2024-03-06T04:17:33;15.27;;;2.10;;
78365;SDS011;67641;59.864;30.464;2024-03-06T04:20:01;13.30;;;1.08;;
78365;SDS011;67641;59.864;30.464;2024-03-06T04:22:29;10.35;;;1.60;;
78365;SDS011;67641;59.864;30.464;2024-03-06T04:24:56;16.30;;;1.60;;
78365;SDS011;67641;59.864;30.464;2024-03-06T04:27:25;10.65;;;1.17;;
78365;SDS011;67641;59.864;30.464;2024-03-06T04:29:52;9.88;;;1.38;;
78365;SDS011;67641;59.864;30.464;2024-03-06T04:32:18;8.32;;;1.00;;
78365;SDS011;67641;59.864;30.464;2024-03-06T04:34:45;11.00;;;1.52;;
78365;SDS011;67641;59.864;30.464;2024-03-06T04:37:12;16.02;;;1.73;;
78365;SDS011;67641;59.864;30.464;2024-03-06T04:39:39;12.75;;;1.33;;
78365;SDS011;67641;59.864;30.464;2024-03-06T04:42:07;10.27;;;1.25;;
78365;SDS011;67641;59.864;30.464;2024-03-06T04:44:34;10.77;;;1.65;;
78365;SDS011;67641;59.864;30.464;2024-03-06T04:47:01;11.18;;;1.27;;
78365;SDS011;67641;59.864;30.464;2024-03-06T04:49:27;10.88;;;1.40;;
78365;SDS011;67641;59.864;30.464;2024-03-06T04:51:54;13.30;;;1.70;;
78365;SDS011;67641;59.864;30.464;2024-03-06T04:54:21;12.77;;;2.08;;
78365;SDS011;67641;59.864;30.464;2024-03-06T04:56:47;9.75;;;1.15;;
78365;SDS011;67641;59.864;30.464;2024-03-06T04:59:14;9.55;;;1.30;;
78365;SDS011;67641;59.864;30.464;2024-03-06T05:01:41;9.45;;;1.02;;
78365;SDS011;67641;59.864;30.464;2024-03-06T05:04:09;12.02;;;1.77;;
78365;SDS011;67641;59.864;30.464;2024-03-06T05:06:37;14.77;;;1.98;;
78365;SDS011;67641;59.864;30.464;2024-03-06T05:09:04;10.55;;;1.70;;
78365;SDS011;67641;59.864;30.464;2024-03-06T05:11:31;11.55;;;1.38;;
78365;SDS011;67641;59.864;30.464;2024-03-06T05:13:59;11.55;;;1.40;;
78365;SDS011;67641;59.864;30.464;2024-03-06T05:16:26;8.88;;;1.52;;
78365;SDS011;67641;59.864;30.464;2024-03-06T05:18:52;11.10;;;1.50;;
78365;SDS011;67641;59.864;30.464;2024-03-06T05:21:20;12.73;;;1.60;;
78365;SDS011;67641;59.864;30.464;2024-03-06T05:23:50;14.27;;;1.55;;
78365;SDS011;67641;59.864;30.464;2024-03-06T05:26:16;8.07;;;1.08;;
78365;SDS011;67641;59.864;30.464;2024-03-06T05:28:43;13.95;;;1.40;;
78365;SDS011;67641;59.864;30.464;2024-03-06T05:31:16;15.73;;;1.60;;
78365;SDS011;67641;59.864;30.464;2024-03-06T05:33:46;10.10;;;1.58;;
78365;SDS011;67641;59.864;30.464;2024-03-06T05:36:14;13.38;;;1.55;;
78365;SDS011;67641;59.864;30.464;2024-03-06T05:38:41;8.93;;;1.00;;
78365;SDS011;67641;59.864;30.464;2024-03-06T05:41:08;15.63;;;2.20;;
78365;SDS011;67641;59.864;30.464;2024-03-06T05:43:35;13.80;;;1.70;;
78365;SDS011;67641;59.864;30.464;2024-03-06T05:46:01;15.15;;;1.30;;
78365;SDS011;67641;59.864;30.464;2024-03-06T05:48:28;11.20;;;1.00;;
78365;SDS011;67641;59.864;30.464;2024-03-06T05:50:54;9.82;;;0.93;;
78365;SDS011;67641;59.864;30.464;2024-03-06T05:53:21;12.73;;;1.60;;
78365;SDS011;67641;59.864;30.464;2024-03-06T05:55:48;12.10;;;1.50;;
78365;SDS011;67641;59.864;30.464;2024-03-06T05:58:14;11.80;;;1.30;;
78365;SDS011;67641;59.864;30.464;2024-03-06T06:00:42;9.35;;;1.70;;
78365;SDS011;67641;59.864;30.464;2024-03-06T06:03:09;14.45;;;1.55;;
78365;SDS011;67641;59.864;30.464;2024-03-06T06:05:38;12.15;;;1.33;;
78365;SDS011;67641;59.864;30.464;2024-03-06T06:08:05;8.95;;;1.23;;
78365;SDS011;67641;59.864;30.464;2024-03-06T06:10:32;9.73;;;1.20;;
78365;SDS011;67641;59.864;30.464;2024-03-06T06:12:59;12.32;;;1.75;;
78365;SDS011;67641;59.864;30.464;2024-03-06T06:15:27;11.07;;;1.40;;
78365;SDS011;67641;59.864;30.464;2024-03-06T06:17:53;13.38;;;1.40;;
78365;SDS011;67641;59.864;30.464;2024-03-06T06:20:20;11.63;;;1.75;;
78365;SDS011;67641;59.864;30.464;2024-03-06T06:22:46;16.02;;;1.73;;
78365;SDS011;67641;59.864;30.464;2024-03-06T06:25:13;10.13;;;1.17;;
78365;SDS011;67641;59.864;30.464;2024-03-06T06:27:41;16.88;;;1.90;;
78365;SDS011;67641;59.864;30.464;2024-03-06T06:30:08;14.30;;;2.00;;
78365;SDS011;67641;59.864;30.464;2024-03-06T06:32:37;7.80;;;1.40;;
78365;SDS011;67641;59.864;30.464;2024-03-06T06:35:06;9.50;;;1.20;;
78365;SDS011;67641;59.864;30.464;2024-03-06T06:37:33;6.75;;;1.00;;
78365;SDS011;67641;59.864;30.464;2024-03-06T06:40:00;7.38;;;0.80;;
78365;SDS011;67641;59.864;30.464;2024-03-06T06:42:32;8.55;;;0.90;;
78365;SDS011;67641;59.864;30.464;2024-03-06T06:44:59;7.82;;;0.85;;
78365;SDS011;67641;59.864;30.464;2024-03-06T06:47:26;5.60;;;0.90;;
78365;SDS011;67641;59.864;30.464;2024-03-06T06:49:53;10.75;;;1.20;;
78365;SDS011;67641;59.864;30.464;2024-03-06T06:52:19;7.38;;;0.75;;
78365;SDS011;67641;59.864;30.464;2024-03-06T06:54:46;6.00;;;0.80;;
78365;SDS011;67641;59.864;30.464;2024-03-06T06:57:13;7.35;;;1.00;;
78365;SDS011;67641;59.864;30.464;2024-03-06T06:59:39;8.63;;;0.95;;
78365;SDS011;67641;59.864;30.464;2024-03-06T07:02:06;6.40;;;1.25;;
78365;SDS011;67641;59.864;30.464;2024-03-06T07:04:32;9.30;;;1.25;;
78365;SDS011;67641;59.864;30.464;2024-03-06T07:07:00;7.28;;;0.90;;
78365;SDS011;67641;59.864;30.464;2024-03-06T07:09:26;10.30;;;1.52;;
78365;SDS011;67641;59.864;30.464;2024-03-06T07:14:22;7.75;;;1.42;;
78365;SDS011;67641;59.864;30.464;2024-03-06T07:16:48;10.73;;;1.50;;
78365;SDS011;67641;59.864;30.464;2024-03-06T07:19:15;9.93;;;1.77;;
78365;SDS011;67641;59.864;30.464;2024-03-06T07:21:43;8.82;;;1.17;;
78365;SDS011;67641;59.864;30.464;2024-03-06T07:24:10;8.90;;;1.70;;
78365;SDS011;67641;59.864;30.464;2024-03-06T07:26:36;14.40;;;1.95;;
78365;SDS011;67641;59.864;30.464;2024-03-06T07:29:03;7.72;;;1.30;;
78365;SDS011;67641;59.864;30.464;2024-03-06T07:31:30;10.77;;;1.35;;
78365;SDS011;67641;59.864;30.464;2024-03-06T07:33:58;14.07;;;2.33;;
78365;SDS011;67641;59.864;30.464;2024-03-06T07:36:24;9.85;;;1.60;;
78365;SDS011;67641;59.864;30.464;2024-03-06T07:38:51;12.02;;;1.88;;
78365;SDS011;67641;59.864;30.464;2024-03-06T07:41:17;8.88;;;1.35;;
78365;SDS011;67641;59.864;30.464;2024-03-06T07:43:44;10.13;;;1.52;;
78365;SDS011;67641;59.864;30.464;2024-03-06T07:46:10;9.40;;;1.63;;
78365;SDS011;67641;59.864;30.464;2024-03-06T07:48:38;13.25;;;1.42;;
78365;SDS011;67641;59.864;30.464;2024-03-06T07:51:07;8.07;;;1.60;;
78365;SDS011;67641;59.864;30.464;2024-03-06T07:53:34;9.02;;;1.55;;
78365;SDS011;67641;59.864;30.464;2024-03-06T07:56:01;12.05;;;2.22;;
78365;SDS011;67641;59.864;30.464;2024-03-06T07:58:29;10.00;;;1.50;;
78365;SDS011;67641;59.864;30.464;2024-03-06T08:00:55;14.98;;;1.92;;
78365;SDS011;67641;59.864;30.464;2024-03-06T08:03:22;9.02;;;1.50;;
78365;SDS011;67641;59.864;30.464;2024-03-06T08:05:51;10.35;;;1.60;;
78365;SDS011;67641;59.864;30.464;2024-03-06T08:08:21;14.15;;;1.70;;
78365;SDS011;67641;59.864;30.464;2024-03-06T08:10:48;10.25;;;1.65;;
78365;SDS011;67641;59.864;30.464;2024-03-06T08:13:15;8.73;;;1.48;;
78365;SDS011;67641;59.864;30.464;2024-03-06T08:15:42;10.00;;;1.67;;
78365;SDS011;67641;59.864;30.464;2024-03-06T08:18:10;15.25;;;1.88;;
78365;SDS011;67641;59.864;30.464;2024-03-06T08:20:37;13.50;;;1.65;;
78365;SDS011;67641;59.864;30.464;2024-03-06T08:23:04;14.38;;;1.83;;
78365;SDS011;67641;59.864;30.464;2024-03-06T08:25:30;10.10;;;1.60;;
78365;SDS011;67641;59.864;30.464;2024-03-06T08:27:58;13.98;;;1.65;;
78365;SDS011;67641;59.864;30.464;2024-03-06T08:30:25;9.98;;;1.38;;
78365;SDS011;67641;59.864;30.464;2024-03-06T08:32:52;8.93;;;1.23;;
78365;SDS011;67641;59.864;30.464;2024-03-06T08:35:18;9.15;;;1.65;;
78365;SDS011;67641;59.864;30.464;2024-03-06T08:37:47;11.32;;;2.03;;
78365;SDS011;67641;59.864;30.464;2024-03-06T08:40:14;19.63;;;2.83;;
78365;SDS011;67641;59.864;30.464;2024-03-06T08:42:41;11.20;;;1.88;;
78365;SDS011;67641;59.864;30.464;2024-03-06T08:45:08;11.13;;;1.30;;
78365;SDS011;67641;59.864;30.464;2024-03-06T08:47:35;8.77;;;1.25;;
78365;SDS011;67641;59.864;30.464;2024-03-06T08:50:02;15.02;;;1.98;;
78365;SDS011;67641;59.864;30.464;2024-03-06T08:52:29;10.63;;;1.40;;
78365;SDS011;67641;59.864;30.464;2024-03-06T08:55:00;13.50;;;1.55;;
78365;SDS011;67641;59.864;30.464;2024-03-06T08:57:28;10.80;;;1.60;;
78365;SDS011;67641;59.864;30.464;2024-03-06T08:59:56;10.32;;;1.15;;
78365;SDS011;67641;59.864;30.464;2024-03-06T09:02:24;9.60;;;1.63;;
78365;SDS011;67641;59.864;30.464;2024-03-06T09:04:51;14.88;;;1.42;;
78365;SDS011;67641;59.864;30.464;2024-03-06T09:07:19;11.45;;;1.48;;
78365;SDS011;67641;59.864;30.464;2024-03-06T09:09:49;11.48;;;1.88;;
78365;SDS011;67641;59.864;30.464;2024-03-06T09:12:17;10.35;;;1.40;;
78365;SDS011;67641;59.864;30.464;2024-03-06T09:14:44;8.55;;;1.20;;
78365;SDS011;67641;59.864;30.464;2024-03-06T09:17:11;8.80;;;1.20;;
78365;SDS011;67641;59.864;30.464;2024-03-06T09:19:40;8.02;;;0.88;;
78365;SDS011;67641;59.864;30.464;2024-03-06T09:22:07;6.82;;;1.20;;
78365;SDS011;67641;59.864;30.464;2024-03-06T09:24:34;8.13;;;1.35;;
78365;SDS011;67641;59.864;30.464;2024-03-06T09:27:04;10.18;;;1.35;;
78365;SDS011;67641;59.864;30.464;2024-03-06T09:29:31;15.38;;;1.48;;
78365;SDS011;67641;59.864;30.464;2024-03-06T09:31:58;14.13;;;2.00;;
78365;SDS011;67641;59.864;30.464;2024-03-06T09:34:25;8.63;;;1.70;;
78365;SDS011;67641;59.864;30.464;2024-03-06T09:36:52;6.10;;;1.38;;
78365;SDS011;67641;59.864;30.464;2024-03-06T09:39:18;4.90;;;0.85;;
78365;SDS011;67641;59.864;30.464;2024-03-06T09:41:47;7.90;;;1.08;;
78365;SDS011;67641;59.864;30.464;2024-03-06T09:44:14;8.07;;;0.93;;
78365;SDS011;67641;59.864;30.464;2024-03-06T09:46:44;11.20;;;1.58;;
78365;SDS011;67641;59.864;30.464;2024-03-06T09:49:12;6.72;;;1.13;;
78365;SDS011;67641;59.864;30.464;2024-03-06T09:51:46;5.45;;;0.68;;
78365;SDS011;67641;59.864;30.464;2024-03-06T09:54:15;6.50;;;1.20;;
78365;SDS011;67641;59.864;30.464;2024-03-06T09:56:46;6.28;;;1.00;;
78365;SDS011;67641;59.864;30.464;2024-03-06T09:59:14;6.43;;;0.80;;
78365;SDS011;67641;59.864;30.464;2024-03-06T10:01:54;9.43;;;1.20;;
78365;SDS011;67641;59.864;30.464;2024-03-06T10:04:26;9.38;;;2.08;;
78365;SDS011;67641;59.864;30.464;2024-03-06T10:06:57;7.75;;;1.65;;
78365;SDS011;67641;59.864;30.464;2024-03-06T10:09:26;10.68;;;1.58;;
78365;SDS011;67641;59.864;30.464;2024-03-06T10:11:53;8.25;;;1.70;;
78365;SDS011;67641;59.864;30.464;2024-03-06T10:14:22;10.50;;;2.67;;
78365;SDS011;67641;59.864;30.464;2024-03-06T10:16:53;11.68;;;2.10;;
78365;SDS011;67641;59.864;30.464;2024-03-06T10:19:22;6.40;;;1.55;;
78365;SDS011;67641;59.864;30.464;2024-03-06T10:21:50;10.23;;;1.40;;
78365;SDS011;67641;59.864;30.464;2024-03-06T10:24:20;13.73;;;1.80;;
78365;SDS011;67641;59.864;30.464;2024-03-06T10:26:49;7.07;;;0.88;;
78365;SDS011;67641;59.864;30.464;2024-03-06T10:29:18;9.80;;;1.45;;
78365;SDS011;67641;59.864;30.464;2024-03-06T10:31:48;8.65;;;1.45;;
78365;SDS011;67641;59.864;30.464;2024-03-06T10:34:26;10.40;;;1.35;;
78365;SDS011;67641;59.864;30.464;2024-03-06T10:36:54;9.55;;;1.75;;
78365;SDS011;67641;59.864;30.464;2024-03-06T10:39:22;10.07;;;1.63;;
78365;SDS011;67641;59.864;30.464;2024-03-06T10:41:53;8.85;;;1.20;;
78365;SDS011;67641;59.864;30.464;2024-03-06T10:44:21;11.18;;;1.90;;
78365;SDS011;67641;59.864;30.464;2024-03-06T10:46:59;5.93;;;1.00;;
78365;SDS011;67641;59.864;30.464;2024-03-06T10:49:30;7.97;;;1.13;;
78365;SDS011;67641;59.864;30.464;2024-03-06T10:51:58;4.97;;;0.77;;
78365;SDS011;67641;59.864;30.464;2024-03-06T10:54:29;9.88;;;1.60;;
78365;SDS011;67641;59.864;30.464;2024-03-06T10:56:58;8.52;;;1.35;;
78365;SDS011;67641;59.864;30.464;2024-03-06T10:59:25;5.70;;;0.93;;
78365;SDS011;67641;59.864;30.464;2024-03-06T11:01:55;8.18;;;1.10;;
78365;SDS011;67641;59.864;30.464;2024-03-06T11:04:26;8.70;;;1.17;;
78365;SDS011;67641;59.864;30.464;2024-03-06T11:06:56;11.70;;;1.60;;
78365;SDS011;67641;59.864;30.464;2024-03-06T11:09:35;9.38;;;1.50;;
78365;SDS011;67641;59.864;30.464;2024-03-06T11:12:06;8.10;;;1.20;;
78365;SDS011;67641;59.864;30.464;2024-03-06T11:14:36;9.00;;;1.35;;
78365;SDS011;67641;59.864;30.464;2024-03-06T11:17:10;7.05;;;1.27;;
78365;SDS011;67641;59.864;30.464;2024-03-06T11:28:28;7.18;;;1.10;;
78365;SDS011;67641;59.864;30.464;2024-03-06T11:31:00;8.30;;;0.93;;
78365;SDS011;67641;59.864;30.464;2024-03-06T11:33:35;9.55;;;1.20;;
78365;SDS011;67641;59.864;30.464;2024-03-06T11:36:21;6.68;;;1.20;;
78365;SDS011;67641;59.864;30.464;2024-03-06T11:38:58;8.93;;;1.33;;
78365;SDS011;67641;59.864;30.464;2024-03-06T11:43:59;6.50;;;1.02;;
78365;SDS011;67641;59.864;30.464;2024-03-06T11:46:45;6.32;;;1.10;;
78365;SDS011;67641;59.864;30.464;2024-03-06T11:51:47;7.65;;;1.30;;
78365;SDS011;67641;59.864;30.464;2024-03-06T11:54:14;7.40;;;1.23;;
78365;SDS011;67641;59.864;30.464;2024-03-06T11:56:45;8.57;;;1.42;;
78365;SDS011;67641;59.864;30.464;2024-03-06T11:59:16;4.55;;;1.50;;
78365;SDS011;67641;59.864;30.464;2024-03-06T12:01:43;6.70;;;0.80;;
78365;SDS011;67641;59.864;30.464;2024-03-06T12:04:10;6.15;;;1.00;;
78365;SDS011;67641;59.864;30.464;2024-03-06T12:06:37;9.90;;;1.27;;
78365;SDS011;67641;59.864;30.464;2024-03-06T12:09:05;8.15;;;0.93;;
78365;SDS011;67641;59.864;30.464;2024-03-06T12:11:35;6.00;;;1.13;;
78365;SDS011;67641;59.864;30.464;2024-03-06T12:14:03;6.65;;;1.55;;
78365;SDS011;67641;59.864;30.464;2024-03-06T12:16:29;5.38;;;1.35;;
78365;SDS011;67641;59.864;30.464;2024-03-06T12:18:57;7.38;;;1.17;;
78365;SDS011;67641;59.864;30.464;2024-03-06T12:21:33;10.43;;;1.45;;
78365;SDS011;67641;59.864;30.464;2024-03-06T12:24:04;10.48;;;1.50;;
78365;SDS011;67641;59.864;30.464;2024-03-06T12:26:31;6.82;;;1.70;;
78365;SDS011;67641;59.864;30.464;2024-03-06T12:29:07;6.35;;;1.50;;
78365;SDS011;67641;59.864;30.464;2024-03-06T12:31:36;6.25;;;1.02;;
78365;SDS011;67641;59.864;30.464;2024-03-06T12:34:07;5.13;;;0.95;;
78365;SDS011;67641;59.864;30.464;2024-03-06T12:36:39;10.80;;;1.38;;
78365;SDS011;67641;59.864;30.464;2024-03-06T12:39:06;7.22;;;1.00;;
78365;SDS011;67641;59.864;30.464;2024-03-06T12:41:41;6.53;;;1.02;;
78365;SDS011;67641;59.864;30.464;2024-03-06T12:44:08;5.60;;;1.05;;
78365;SDS011;67641;59.864;30.464;2024-03-06T12:46:35;6.55;;;0.75;;
78365;SDS011;67641;59.864;30.464;2024-03-06T12:49:01;6.38;;;0.73;;
78365;SDS011;67641;59.864;30.464;2024-03-06T12:51:28;5.65;;;0.80;;
78365;SDS011;67641;59.864;30.464;2024-03-06T12:53:55;1.83;;;0.40;;
78365;SDS011;67641;59.864;30.464;2024-03-06T12:56:21;3.90;;;0.70;;
78365;SDS011;67641;59.864;30.464;2024-03-06T12:58:48;7.28;;;1.17;;
78365;SDS011;67641;59.864;30.464;2024-03-06T13:01:15;9.15;;;1.00;;
78365;SDS011;67641;59.864;30.464;2024-03-06T13:03:41;7.25;;;1.08;;
78365;SDS011;67641;59.864;30.464;2024-03-06T13:06:08;6.55;;;1.20;;
78365;SDS011;67641;59.864;30.464;2024-03-06T13:08:35;6.13;;;1.45;;
78365;SDS011;67641;59.864;30.464;2024-03-06T13:11:02;6.10;;;1.23;;
78365;SDS011;67641;59.864;30.464;2024-03-06T13:13:29;7.35;;;1.83;;
78365;SDS011;67641;59.864;30.464;2024-03-06T13:15:56;9.02;;;2.72;;
78365;SDS011;67641;59.864;30.464;2024-03-06T13:18:22;6.18;;;1.02;;
78365;SDS011;67641;59.864;30.464;2024-03-06T13:20:49;8.23;;;1.60;;
78365;SDS011;67641;59.864;30.464;2024-03-06T13:23:16;5.55;;;1.88;;
78365;SDS011;67641;59.864;30.464;2024-03-06T13:25:42;7.68;;;1.63;;
78365;SDS011;67641;59.864;30.464;2024-03-06T13:28:11;8.88;;;2.00;;
78365;SDS011;67641;59.864;30.464;2024-03-06T13:30:38;5.30;;;1.70;;
78365;SDS011;67641;59.864;30.464;2024-03-06T13:33:05;4.85;;;1.33;;
78365;SDS011;67641;59.864;30.464;2024-03-06T13:35:33;6.70;;;1.90;;
78365;SDS011;67641;59.864;30.464;2024-03-06T13:38:00;8.85;;;3.38;;
78365;SDS011;67641;59.864;30.464;2024-03-06T13:40:27;3.63;;;0.60;;
78365;SDS011;67641;59.864;30.464;2024-03-06T13:42:54;8.25;;;0.80;;
78365;SDS011;67641;59.864;30.464;2024-03-06T13:45:21;4.38;;;1.10;;
78365;SDS011;67641;59.864;30.464;2024-03-06T13:47:47;5.43;;;0.85;;
78365;SDS011;67641;59.864;30.464;2024-03-06T13:50:15;5.28;;;0.80;;
78365;SDS011;67641;59.864;30.464;2024-03-06T13:52:42;5.15;;;1.10;;
78365;SDS011;67641;59.864;30.464;2024-03-06T13:55:09;6.00;;;0.95;;
78365;SDS011;67641;59.864;30.464;2024-03-06T13:57:36;7.53;;;2.08;;
78365;SDS011;67641;59.864;30.464;2024-03-06T14:00:05;10.10;;;2.10;;
78365;SDS011;67641;59.864;30.464;2024-03-06T14:02:44;9.68;;;1.83;;
78365;SDS011;67641;59.864;30.464;2024-03-06T14:05:13;7.55;;;1.80;;
78365;SDS011;67641;59.864;30.464;2024-03-06T14:07:40;6.05;;;1.98;;
78365;SDS011;67641;59.864;30.464;2024-03-06T14:10:07;6.68;;;1.40;;
78365;SDS011;67641;59.864;30.464;2024-03-06T14:12:34;5.90;;;0.70;;
78365;SDS011;67641;59.864;30.464;2024-03-06T14:15:04;9.20;;;1.17;;
78365;SDS011;67641;59.864;30.464;2024-03-06T14:17:34;5.43;;;0.68;;
78365;SDS011;67641;59.864;30.464;2024-03-06T14:20:01;5.32;;;1.50;;
78365;SDS011;67641;59.864;30.464;2024-03-06T14:22:30;6.22;;;1.80;;
78365;SDS011;67641;59.864;30.464;2024-03-06T14:24:56;7.72;;;1.50;;
78365;SDS011;67641;59.864;30.464;2024-03-06T14:27:23;3.47;;;0.60;;
78365;SDS011;67641;59.864;30.464;2024-03-06T14:29:50;4.18;;;0.95;;
78365;SDS011;67641;59.864;30.464;2024-03-06T14:32:18;2.88;;;0.60;;
78365;SDS011;67641;59.864;30.464;2024-03-06T14:37:13;3.72;;;1.25;;
78365;SDS011;67641;59.864;30.464;2024-03-06T14:39:39;5.47;;;1.55;;
78365;SDS011;67641;59.864;30.464;2024-03-06T14:42:06;8.65;;;2.70;;
78365;SDS011;67641;59.864;30.464;2024-03-06T14:44:33;8.88;;;1.55;;
78365;SDS011;67641;59.864;30.464;2024-03-06T14:46:59;6.45;;;1.50;;
78365;SDS011;67641;59.864;30.464;2024-03-06T14:49:26;7.28;;;1.17;;
78365;SDS011;67641;59.864;30.464;2024-03-06T14:51:53;9.70;;;2.40;;